Time;durP1;ratioP1;P1;durP2;ratioP2;P2;SDS_P1;SDS_P2;PMS_P1;PMS_P2;Temp;Humidity;BMP_temperature;BMP_pressure;BME280_temperature;BME280_humidity;BME280_pressure;Samples;Min_cycle;Max_cycle;Signal;HPM_P1;HPM_P2
2023/12/27 00:00:41;;;;;;;13.85;6.35;;;;;;;5.60;90.20;102043.16;5054327;28;20024;-72
2023/12/27 00:03:06;;;;;;;13.68;6.45;;;;;;;5.57;89.78;102032.66;5058692;28;20031;-72
2023/12/27 00:05:31;;;;;;;15.02;6.43;;;;;;;5.56;90.01;102030.91;5060982;28;20074;-72
2023/12/27 00:07:57;;;;;;;12.48;5.80;;;;;;;5.53;89.90;102023.03;5052490;28;20032;-72
2023/12/27 00:10:22;;;;;;;12.63;6.10;;;;;;;5.47;89.03;102016.94;5056422;28;20063;-72
2023/12/27 00:12:48;;;;;;;12.68;5.95;;;;;;;5.38;87.94;102017.81;5058225;28;20032;-72
2023/12/27 00:15:13;;;;;;;11.48;6.18;;;;;;;5.28;89.82;102013.44;5057629;28;20021;-72
2023/12/27 00:17:38;;;;;;;17.30;7.75;;;;;;;5.31;90.56;102008.16;5057261;28;20333;-72
2023/12/27 00:20:04;;;;;;;9.68;6.00;;;;;;;5.33;90.78;102011.69;5063247;28;20639;-72
2023/12/27 00:22:30;;;;;;;10.13;5.95;;;;;;;5.32;90.65;102018.69;5057452;28;20032;-72
2023/12/27 00:24:55;;;;;;;11.35;6.10;;;;;;;5.29;90.76;102016.03;5056423;28;20819;-72
2023/12/27 00:27:20;;;;;;;13.00;6.47;;;;;;;5.28;90.64;102014.31;5055752;28;20174;-72
2023/12/27 00:29:46;;;;;;;19.30;7.32;;;;;;;5.27;90.63;102011.66;5055287;28;20044;-72
2023/12/27 00:32:11;;;;;;;12.48;5.95;;;;;;;5.25;90.31;102013.41;5053748;28;20107;-72
2023/12/27 00:34:38;;;;;;;15.65;6.03;;;;;;;5.30;90.65;102024.78;5055800;28;20028;-72
2023/12/27 00:37:04;;;;;;;12.38;6.22;;;;;;;5.34;91.04;102016.06;5053160;28;20056;-72
2023/12/27 00:39:29;;;;;;;18.63;6.10;;;;;;;5.37;91.23;102019.56;5056420;28;20502;-72
2023/12/27 00:41:55;;;;;;;15.80;6.82;;;;;;;5.43;91.37;102012.56;5054340;28;20028;-72
2023/12/27 00:44:20;;;;;;;12.15;6.05;;;;;;;5.48;91.34;102010.81;5054711;28;20048;-72
2023/12/27 00:46:45;;;;;;;14.98;6.60;;;;;;;5.50;91.26;102004.69;5056046;28;20024;-72
2023/12/27 00:49:11;;;;;;;15.88;6.53;;;;;;;5.54;91.17;102009.03;5054774;28;20021;-72
2023/12/27 00:51:37;;;;;;;15.80;6.32;;;;;;;5.55;90.93;102000.31;5060852;28;20029;-72
2023/12/27 00:54:02;;;;;;;12.05;7.00;;;;;;;5.58;91.22;102005.53;5057478;28;20057;-72
2023/12/27 00:56:28;;;;;;;22.95;7.15;;;;;;;5.59;91.32;101999.41;5055508;28;20058;-72
2023/12/27 00:58:53;;;;;;;15.32;6.13;;;;;;;5.62;91.40;102006.41;5061646;28;20131;-69
2023/12/27 01:01:19;;;;;;;16.40;6.95;;;;;;;5.60;91.43;102006.44;5055669;28;20373;-69
2023/12/27 01:03:44;;;;;;;10.10;6.10;;;;;;;5.61;91.48;102012.56;5062768;28;20502;-69
2023/12/27 01:06:10;;;;;;;10.20;6.00;;;;;;;5.58;91.52;102012.53;5065501;28;20024;-68
2023/12/27 01:08:36;;;;;;;12.23;5.95;;;;;;;5.53;90.20;102012.53;5056697;28;20664;-69
2023/12/27 01:11:02;;;;;;;12.75;6.03;;;;;;;5.49;91.04;102005.53;5057665;28;20097;-69
2023/12/27 01:13:28;;;;;;;13.30;6.25;;;;;;;5.48;91.07;102001.19;5060823;28;20020;-69
2023/12/27 01:15:54;;;;;;;17.77;6.10;;;;;;;5.42;90.45;101998.56;5060742;28;20120;-70
2023/12/27 01:18:19;;;;;;;13.07;5.10;;;;;;;5.29;89.54;101999.44;5060899;28;20115;-68
2023/12/27 01:20:44;;;;;;;15.20;6.45;;;;;;;5.23;89.45;101996.84;5065162;28;20116;-69
2023/12/27 01:23:10;;;;;;;14.50;5.78;;;;;;;5.17;89.29;101996.81;5061845;28;20032;-69
2023/12/27 01:25:35;;;;;;;12.23;4.95;;;;;;;5.12;89.98;101989.81;5060417;28;20029;-69
2023/12/27 01:28:00;;;;;;;14.00;6.35;;;;;;;5.12;90.03;101983.69;5060432;28;20270;-69
2023/12/27 01:30:26;;;;;;;14.52;6.93;;;;;;;5.15;90.61;101980.22;5066103;28;20028;-69
2023/12/27 01:32:51;;;;;;;16.88;6.97;;;;;;;5.16;90.52;101971.47;5055639;28;20024;-69
2023/12/27 01:35:16;;;;;;;17.63;6.90;;;;;;;5.14;90.72;101976.72;5056024;28;20021;-69
2023/12/27 01:37:43;;;;;;;14.82;7.78;;;;;;;5.14;90.94;101987.22;5064724;28;20119;-69
2023/12/27 01:40:08;;;;;;;15.68;7.70;;;;;;;5.16;91.26;101984.56;5062232;28;20043;-69
2023/12/27 01:42:34;;;;;;;19.52;7.80;;;;;;;5.21;91.28;101982.81;5058465;28;20028;-69
2023/12/27 01:45:00;;;;;;;17.27;7.63;;;;;;;5.16;91.28;101992.44;5054985;28;20028;-69
2023/12/27 01:47:25;;;;;;;16.98;7.95;;;;;;;5.16;91.62;101989.81;5054937;28;20025;-69
2023/12/27 01:49:52;;;;;;;18.00;7.88;;;;;;;5.15;91.90;101995.94;5056807;28;20392;-69
2023/12/27 01:52:18;;;;;;;23.10;8.52;;;;;;;5.12;91.97;101997.66;5064519;28;20103;-69
2023/12/27 01:54:44;;;;;;;18.80;8.43;;;;;;;5.16;91.90;102000.31;5061051;28;20116;-69
2023/12/27 01:57:10;;;;;;;13.90;8.30;;;;;;;5.15;91.53;101999.44;5054597;28;20368;-69
2023/12/27 01:59:35;;;;;;;16.45;7.30;;;;;;;5.16;91.82;102000.31;5056339;28;20041;-69
2023/12/27 02:02:01;;;;;;;15.70;7.72;;;;;;;5.12;91.73;101988.94;5054769;28;20024;-69
2023/12/27 02:04:27;;;;;;;13.68;6.97;;;;;;;5.13;91.56;101995.94;5062402;28;20056;-69
2023/12/27 02:06:52;;;;;;;18.90;7.35;;;;;;;5.14;91.81;101999.44;5059793;28;20028;-69
2023/12/27 02:09:19;;;;;;;15.93;7.32;;;;;;;5.16;92.06;101984.56;5066635;28;20027;-69
2023/12/27 02:11:44;;;;;;;15.20;7.22;;;;;;;5.19;92.00;101985.47;5062433;28;20036;-69
2023/12/27 02:14:09;;;;;;;13.70;6.95;;;;;;;5.25;91.61;101982.84;5066926;28;20024;-69
2023/12/27 02:16:36;;;;;;;16.88;7.03;;;;;;;5.28;91.65;101984.59;5058789;28;20027;-69
2023/12/27 02:19:04;;;;;;;17.05;6.43;;;;;;;5.29;91.79;101976.72;5067118;28;20624;-69
2023/12/27 02:21:31;;;;;;;20.35;7.35;;;;;;;5.27;92.04;101981.09;5066969;28;20513;-69
2023/12/27 02:24:00;;;;;;;17.88;7.85;;;;;;;5.28;92.03;101977.59;5065312;28;20016;-69
2023/12/27 02:26:26;;;;;;;15.75;6.43;;;;;;;5.28;92.28;101979.34;5065399;28;20025;-69
2023/12/27 02:28:51;;;;;;;12.95;6.47;;;;;;;5.30;92.29;101978.47;5063176;28;20040;-72
2023/12/27 02:31:17;;;;;;;17.83;6.53;;;;;;;5.31;92.29;101974.09;5057939;28;20025;-72
2023/12/27 02:33:45;;;;;;;12.18;6.78;;;;;;;5.31;92.32;101979.31;5058229;28;20032;-72
2023/12/27 02:36:11;;;;;;;20.90;6.30;;;;;;;5.30;92.44;101962.72;5061919;28;20027;-72
2023/12/27 02:38:36;;;;;;;20.33;8.15;;;;;;;5.30;92.33;101961.84;5062949;28;20024;-72
2023/12/27 02:41:05;;;;;;;17.55;6.50;;;;;;;5.24;92.58;101964.50;5058017;28;20049;-72
2023/12/27 02:43:30;;;;;;;19.38;6.13;;;;;;;5.25;92.72;101969.72;5062611;28;20052;-72
2023/12/27 02:45:56;;;;;;;10.75;6.35;;;;;;;5.19;92.54;101953.13;5062590;28;20491;-72
2023/12/27 02:48:21;;;;;;;17.83;6.43;;;;;;;5.15;93.01;101956.63;5062088;28;20312;-72
2023/12/27 02:50:47;;;;;;;14.60;6.43;;;;;;;5.12;93.07;101953.09;5063922;28;20060;-72
2023/12/27 02:53:12;;;;;;;14.38;6.07;;;;;;;5.11;92.97;101948.75;5063369;28;20032;-72
2023/12/27 02:55:38;;;;;;;13.50;6.25;;;;;;;5.13;93.07;101938.28;5067019;28;20471;-72
2023/12/27 02:58:03;;;;;;;16.63;6.10;;;;;;;5.11;93.20;101940.00;5066315;28;20594;-72
2023/12/27 03:00:34;;;;;;;14.45;7.03;;;;;;;5.11;93.10;101932.16;5067693;28;20028;-72
2023/12/27 03:03:00;;;;;;;15.35;6.13;;;;;;;5.12;93.31;101924.28;5063099;28;20534;-72
2023/12/27 03:05:26;;;;;;;17.42;6.70;;;;;;;5.16;93.53;101929.53;5065308;28;20029;-72
2023/12/27 03:07:51;;;;;;;16.75;6.70;;;;;;;5.19;93.58;101932.16;5056933;28;20051;-72
2023/12/27 03:10:16;;;;;;;14.55;6.63;;;;;;;5.20;93.68;101929.53;5068103;28;20016;-72
2023/12/27 03:12:42;;;;;;;17.00;6.80;;;;;;;5.22;93.84;101926.91;5062692;28;20113;-72
2023/12/27 03:15:07;;;;;;;16.10;6.35;;;;;;;5.25;93.96;101919.91;5062254;28;20427;-72
2023/12/27 03:17:33;;;;;;;16.20;6.15;;;;;;;5.29;93.40;101908.53;5056900;28;20009;-72
2023/12/27 03:19:58;;;;;;;15.15;6.22;;;;;;;5.30;93.13;101906.78;5062597;28;20024;-69
2023/12/27 03:22:24;;;;;;;13.05;6.40;;;;;;;5.30;93.50;101906.78;5062859;28;20419;-69
2023/12/27 03:24:49;;;;;;;13.30;6.85;;;;;;;5.37;93.49;101898.06;5059533;28;20399;-69
2023/12/27 03:27:14;;;;;;;16.42;6.68;;;;;;;5.37;93.55;101895.44;5060867;28;20447;-69
2023/12/27 03:29:39;;;;;;;17.00;7.30;;;;;;;5.39;93.88;101891.06;5058042;28;20035;-69
2023/12/27 03:32:05;;;;;;;13.88;7.22;;;;;;;5.43;93.46;101879.69;5064418;28;20032;-69
2023/12/27 03:34:30;;;;;;;18.33;7.20;;;;;;;5.45;93.65;101874.41;5066409;28;20085;-69
2023/12/27 03:36:56;;;;;;;19.65;7.90;;;;;;;5.46;93.57;101884.94;5066727;28;20115;-69
2023/12/27 03:39:21;;;;;;;13.15;7.28;;;;;;;5.48;93.92;101880.53;5066092;28;20450;-72
2023/12/27 03:41:47;;;;;;;16.83;8.07;;;;;;;5.47;93.53;101881.41;5066753;28;20024;-72
2023/12/27 03:44:12;;;;;;;13.80;7.05;;;;;;;5.46;93.93;101877.06;5065649;28;20040;-72
2023/12/27 03:46:37;;;;;;;17.42;8.00;;;;;;;5.46;93.71;101866.56;5057282;28;20099;-72
2023/12/27 03:49:03;;;;;;;16.15;8.07;;;;;;;5.44;93.52;101863.06;5064879;28;20069;-72
2023/12/27 03:51:29;;;;;;;21.02;8.68;;;;;;;5.32;93.33;101850.00;5062886;28;20110;-72
2023/12/27 03:53:54;;;;;;;18.70;8.90;;;;;;;5.26;93.96;101839.50;5055898;28;20035;-72
2023/12/27 03:56:19;;;;;;;18.27;8.13;;;;;;;5.24;94.09;101833.41;5054952;28;20500;-72
2023/12/27 03:58:45;;;;;;;16.40;8.13;;;;;;;5.15;94.99;101838.66;5055906;28;20205;-72
2023/12/27 04:01:11;;;;;;;22.33;8.80;;;;;;;5.10;95.00;101836.06;5061766;28;20140;-72
2023/12/27 04:03:36;;;;;;;17.23;8.55;;;;;;;5.26;94.65;101829.88;5064930;28;20024;-72
2023/12/27 04:06:01;;;;;;;16.15;8.32;;;;;;;5.33;93.91;101833.38;5057423;28;20438;-72
2023/12/27 04:08:27;;;;;;;17.38;8.05;;;;;;;5.19;94.56;101822.94;5057051;28;20044;-72
2023/12/27 04:10:52;;;;;;;21.35;8.10;;;;;;;5.37;94.15;101816.78;5063831;28;20032;-72
2023/12/27 04:13:18;;;;;;;16.00;8.13;;;;;;;5.42;93.84;101816.75;5059936;28;20024;-72
2023/12/27 04:15:43;;;;;;;25.05;9.05;;;;;;;5.43;94.09;101816.75;5059449;28;20021;-72
2023/12/27 04:18:11;;;;;;;23.52;7.82;;;;;;;5.50;94.13;101814.97;5057130;28;20029;-72
2023/12/27 04:20:37;;;;;;;19.20;7.35;;;;;;;5.54;93.79;101807.06;5061819;28;20066;-72
2023/12/27 04:23:03;;;;;;;21.60;8.25;;;;;;;5.57;94.13;101801.81;5059178;28;20106;-72
2023/12/27 04:25:28;;;;;;;18.58;7.72;;;;;;;5.58;93.88;101803.56;5059063;28;20020;-72
2023/12/27 04:27:53;;;;;;;16.05;7.78;;;;;;;5.62;93.93;101812.28;5064556;28;20066;-69
2023/12/27 04:30:19;;;;;;;23.48;8.38;;;;;;;5.67;94.07;101804.41;5065281;28;20033;-69
2023/12/27 04:32:44;;;;;;;18.35;8.18;;;;;;;5.71;93.77;101808.75;5062000;28;20024;-68
2023/12/27 04:35:09;;;;;;;20.10;7.70;;;;;;;5.72;93.64;101808.75;5063228;28;20079;-69
2023/12/27 04:37:35;;;;;;;19.70;7.72;;;;;;;5.76;93.76;101809.63;5069737;28;20062;-69
2023/12/27 04:40:00;;;;;;;15.15;6.88;;;;;;;5.77;93.89;101792.97;5066159;28;20037;-69
2023/12/27 04:42:25;;;;;;;18.63;7.95;;;;;;;5.78;93.84;101798.25;5059366;28;20482;-69
2023/12/27 04:44:51;;;;;;;15.07;7.35;;;;;;;5.81;93.50;101808.72;5063478;28;20158;-69
2023/12/27 04:47:16;;;;;;;20.30;7.13;;;;;;;5.82;93.55;101810.44;5060735;28;20029;-69
2023/12/27 04:49:41;;;;;;;15.38;6.30;;;;;;;5.86;93.32;101799.06;5062759;28;20030;-69
2023/12/27 04:52:07;;;;;;;14.20;6.88;;;;;;;5.87;93.11;101795.56;5057740;28;20021;-69
2023/12/27 04:54:32;;;;;;;20.67;7.35;;;;;;;5.89;93.62;101796.44;5066301;28;20044;-69
2023/12/27 04:56:58;;;;;;;17.00;7.28;;;;;;;5.93;93.22;101788.59;5067412;28;20028;-69
2023/12/27 04:59:23;;;;;;;15.77;6.40;;;;;;;5.97;93.09;101793.81;5063961;28;20093;-69
2023/12/27 05:01:50;;;;;;;15.85;6.90;;;;;;;6.00;93.35;101788.50;5061090;28;20021;-69
2023/12/27 05:04:16;;;;;;;11.02;6.28;;;;;;;6.02;93.19;101784.16;5062952;28;20036;-69
2023/12/27 05:06:41;;;;;;;11.88;6.82;;;;;;;6.04;92.92;101776.25;5060048;28;20112;-69
2023/12/27 05:09:06;;;;;;;13.75;6.95;;;;;;;6.06;93.18;101770.13;5062731;28;20116;-69
2023/12/27 05:11:32;;;;;;;17.38;7.13;;;;;;;6.07;93.19;101769.22;5067300;28;20078;-69
2023/12/27 05:13:57;;;;;;;14.50;5.97;;;;;;;6.11;93.42;101763.09;5066070;28;20103;-69
2023/12/27 05:16:23;;;;;;;16.75;6.57;;;;;;;6.12;93.17;101756.94;5064820;28;20388;-70
2023/12/27 05:18:48;;;;;;;17.80;6.65;;;;;;;6.17;93.37;101758.66;5065571;28;20055;-69
2023/12/27 05:21:17;;;;;;;13.50;6.22;;;;;;;6.17;93.38;101756.03;5064416;28;20052;-69
2023/12/27 05:23:42;;;;;;;19.48;6.07;;;;;;;6.20;93.40;101754.28;5067157;28;20056;-70
2023/12/27 05:26:08;;;;;;;23.02;6.57;;;;;;;6.21;93.71;101753.38;5054668;28;20059;-70
2023/12/27 05:28:34;;;;;;;18.52;5.60;;;;;;;6.22;93.39;101754.25;5067131;28;20039;-70
2023/12/27 05:30:59;;;;;;;12.93;5.85;;;;;;;6.21;93.60;101740.25;5058371;28;20024;-70
2023/12/27 05:33:25;;;;;;;15.30;6.07;;;;;;;6.23;93.71;101748.09;5065170;28;20427;-70
2023/12/27 05:35:50;;;;;;;12.52;5.57;;;;;;;6.22;93.67;101741.13;5068428;28;20103;-70
2023/12/27 05:38:16;;;;;;;17.42;5.95;;;;;;;6.25;93.81;101751.59;5066459;28;20032;-73
2023/12/27 05:40:41;;;;;;;15.88;5.75;;;;;;;6.26;94.07;101748.97;5062920;28;20063;-74
2023/12/27 05:43:07;;;;;;;14.40;5.85;;;;;;;6.26;94.26;101734.97;5069377;28;20113;-74
2023/12/27 05:45:32;;;;;;;18.50;5.53;;;;;;;6.27;94.83;101734.94;5067602;28;20068;-74
2023/12/27 05:47:58;;;;;;;16.40;6.03;;;;;;;6.25;94.89;101727.94;5066376;28;20047;-74
2023/12/27 05:50:23;;;;;;;16.75;6.90;;;;;;;6.29;95.01;101729.66;5071509;28;20024;-73
2023/12/27 05:52:49;;;;;;;14.63;5.78;;;;;;;6.28;94.92;101727.94;5064927;28;20106;-73
2023/12/27 05:55:15;;;;;;;18.52;5.60;;;;;;;6.29;95.14;101724.41;5064294;28;20025;-73
2023/12/27 05:57:40;;;;;;;12.93;5.30;;;;;;;6.28;95.61;101715.66;5069869;28;20056;-73
2023/12/27 06:00:06;;;;;;;11.30;5.18;;;;;;;6.32;95.50;101716.53;5065702;28;20214;-73
2023/12/27 06:02:32;;;;;;;17.27;5.25;;;;;;;6.38;95.34;101705.97;5067141;28;20042;-73
2023/12/27 06:04:58;;;;;;;8.75;4.65;;;;;;;6.37;95.41;101707.72;5067272;28;20025;-73
2023/12/27 06:07:23;;;;;;;12.68;4.95;;;;;;;6.40;95.48;101706.84;5068131;28;20028;-73
2023/12/27 06:09:48;;;;;;;13.20;4.90;;;;;;;6.42;95.62;101698.94;5064852;28;20481;-71
2023/12/27 06:12:14;;;;;;;11.23;4.10;;;;;;;6.43;95.42;101705.91;5065485;28;20074;-71
2023/12/27 06:14:39;;;;;;;14.63;5.60;;;;;;;6.43;95.65;101698.91;5058711;28;20526;-70
2023/12/27 06:17:04;;;;;;;13.25;5.45;;;;;;;6.45;95.52;101683.16;5061634;28;20115;-71
2023/12/27 06:19:31;;;;;;;15.57;4.63;;;;;;;6.47;95.32;101681.38;5066932;28;20032;-71
2023/12/27 06:21:56;;;;;;;13.38;4.90;;;;;;;6.49;95.60;101684.88;5066278;28;20383;-70
2023/12/27 06:24:22;;;;;;;8.18;4.40;;;;;;;6.52;95.91;101682.19;5064163;28;20028;-70
2023/12/27 06:26:47;;;;;;;11.27;5.03;;;;;;;6.52;96.07;101682.19;5066177;28;20424;-71
2023/12/27 06:29:12;;;;;;;13.93;5.07;;;;;;;6.56;96.43;101679.50;5063658;28;21096;-70
2023/12/27 06:31:38;;;;;;;14.93;4.60;;;;;;;6.57;96.39;101669.88;5063866;28;20035;-70
2023/12/27 06:34:03;;;;;;;11.68;4.50;;;;;;;6.59;96.15;101663.72;5058594;28;20128;-71
2023/12/27 06:36:29;;;;;;;19.55;5.82;;;;;;;6.59;96.69;101658.47;5070379;28;20103;-70
2023/12/27 06:38:54;;;;;;;11.07;4.90;;;;;;;6.60;97.04;101649.69;5064624;28;20068;-71
2023/12/27 06:41:19;;;;;;;13.75;5.05;;;;;;;6.61;96.88;101643.56;5068292;28;20111;-71
2023/12/27 06:43:45;;;;;;;15.10;5.80;;;;;;;6.61;97.15;101648.81;5060982;28;20089;-70
2023/12/27 06:46:10;;;;;;;12.90;5.45;;;;;;;6.64;97.04;101640.03;5068493;28;20025;-71
2023/12/27 06:48:35;;;;;;;10.63;5.07;;;;;;;6.67;97.17;101641.75;5070046;28;20111;-74
2023/12/27 06:51:03;;;;;;;11.95;5.32;;;;;;;6.67;97.80;101632.13;5067510;28;20086;-73
2023/12/27 06:53:29;;;;;;;14.25;5.38;;;;;;;6.71;97.65;101628.56;5062470;28;20025;-73
2023/12/27 06:55:55;;;;;;;12.88;5.68;;;;;;;6.75;97.52;101626.78;5067916;28;20026;-73
2023/12/27 06:58:20;;;;;;;14.85;6.68;;;;;;;6.71;98.99;101622.44;5061873;28;20083;-73
2023/12/27 07:00:46;;;;;;;12.25;5.85;;;;;;;6.78;98.55;101622.34;5057438;28;20020;-73
2023/12/27 07:03:12;;;;;;;13.27;6.05;;;;;;;6.82;99.01;101617.94;5059338;28;20026;-74
2023/12/27 07:05:38;;;;;;;16.20;6.85;;;;;;;6.84;99.01;101619.63;5063716;28;20028;-73
2023/12/27 07:08:04;;;;;;;12.85;6.30;;;;;;;6.86;99.42;101624.91;5065182;28;20036;-73
2023/12/27 07:10:30;;;;;;;14.05;6.55;;;;;;;6.86;99.69;101623.13;5065995;28;20040;-74
2023/12/27 07:12:55;;;;;;;11.32;6.13;;;;;;;6.89;99.29;101623.09;5053542;28;20055;-74
2023/12/27 07:15:20;;;;;;;13.35;6.40;;;;;;;6.95;99.05;101618.63;5056087;28;20483;-74
2023/12/27 07:17:46;;;;;;;11.27;5.53;;;;;;;6.95;99.55;101614.28;5053919;28;20119;-74
2023/12/27 07:20:12;;;;;;;10.95;6.13;;;;;;;6.97;99.43;101620.38;5063091;28;20055;-71
2023/12/27 07:22:37;;;;;;;9.98;6.35;;;;;;;7.03;99.25;101615.00;5064219;28;20029;-71
2023/12/27 07:25:03;;;;;;;9.52;6.65;;;;;;;7.00;99.98;101614.22;5067485;28;20024;-71
2023/12/27 07:27:29;;;;;;;11.18;6.00;;;;;;;7.08;99.44;101612.31;5064737;28;20436;-71
2023/12/27 07:29:54;;;;;;;8.40;6.00;;;;;;;7.09;99.28;101609.69;5059368;28;20036;-74
2023/12/27 07:32:20;;;;;;;10.70;6.90;;;;;;;7.10;99.62;101603.53;5058235;28;20032;-74
2023/12/27 07:34:45;;;;;;;11.48;6.75;;;;;;;7.14;99.92;101605.25;5061969;28;20464;-74
2023/12/27 07:37:11;;;;;;;10.00;6.63;;;;;;;7.20;99.87;101592.91;5061200;28;20492;-74
2023/12/27 07:39:37;;;;;;;12.00;7.10;;;;;;;7.20;100.00;101601.66;5063869;28;20082;-74
2023/12/27 07:42:03;;;;;;;10.93;6.13;;;;;;;7.29;100.00;101609.41;5064917;28;20029;-74
2023/12/27 07:44:29;;;;;;;11.10;7.00;;;;;;;7.33;99.67;101599.72;5056179;28;20040;-74
2023/12/27 07:46:55;;;;;;;10.63;6.60;;;;;;;7.32;99.75;101593.59;5062716;28;20028;-74
2023/12/27 07:49:20;;;;;;;11.40;7.18;;;;;;;7.35;100.00;101604.06;5063406;28;20511;-74
2023/12/27 07:51:46;;;;;;;11.60;7.18;;;;;;;7.45;99.97;101598.66;5066310;28;20107;-74
2023/12/27 07:54:11;;;;;;;11.43;7.32;;;;;;;7.47;100.00;101602.16;5061752;28;20025;-74
2023/12/27 07:56:37;;;;;;;12.70;8.18;;;;;;;7.49;100.00;101595.97;5063053;28;20578;-74
2023/12/27 07:59:03;;;;;;;10.10;7.18;;;;;;;7.51;100.00;101593.31;5067544;28;20044;-74
2023/12/27 08:01:31;;;;;;;13.80;8.25;;;;;;;7.54;100.00;101594.13;5065507;28;20019;-74
2023/12/27 08:03:57;;;;;;;11.80;7.82;;;;;;;7.56;100.00;101599.38;5064289;28;20048;-74
2023/12/27 08:06:23;;;;;;;12.23;8.10;;;;;;;7.59;100.00;101588.78;5063023;28;20081;-74
2023/12/27 08:08:48;;;;;;;16.80;9.35;;;;;;;7.61;100.00;101592.28;5068913;28;20306;-74
2023/12/27 08:11:14;;;;;;;12.10;7.53;;;;;;;7.71;100.00;101590.38;5060232;28;20127;-74
2023/12/27 08:13:39;;;;;;;13.90;8.48;;;;;;;7.71;100.00;101593.00;5063354;28;20035;-74
2023/12/27 08:16:07;;;;;;;11.48;7.70;;;;;;;7.75;100.00;101586.81;5056548;28;20048;-74
2023/12/27 08:18:32;;;;;;;11.75;7.28;;;;;;;7.78;99.49;101571.81;5050424;28;20373;-74
2023/12/27 08:20:58;;;;;;;12.43;8.75;;;;;;;7.78;100.00;101581.47;5063880;28;20123;-74
2023/12/27 08:23:23;;;;;;;12.23;8.60;;;;;;;7.85;100.00;101583.97;5056976;28;20067;-74
2023/12/27 08:25:49;;;;;;;14.00;8.23;;;;;;;7.91;100.00;101573.34;5060896;28;20039;-74
2023/12/27 08:28:14;;;;;;;13.13;8.40;;;;;;;7.91;100.00;101570.69;5060127;28;20111;-74
2023/12/27 08:30:41;;;;;;;12.32;8.20;;;;;;;8.03;100.00;101568.75;5064070;28;20021;-74
2023/12/27 08:33:06;;;;;;;11.93;8.15;;;;;;;8.08;100.00;101551.13;5055820;28;20048;-74
2023/12/27 08:35:35;;;;;;;10.43;6.88;;;;;;;8.12;100.00;101545.75;5061117;28;20021;-75
2023/12/27 08:38:01;;;;;;;13.68;8.43;;;;;;;8.13;100.00;101546.63;5056415;28;20026;-74
2023/12/27 08:40:26;;;;;;;14.20;8.57;;;;;;;8.18;100.00;101540.38;5058639;28;20829;-75
2023/12/27 08:42:53;;;;;;;11.27;7.50;;;;;;;8.22;100.00;101541.19;5056037;28;20025;-74
2023/12/27 08:45:18;;;;;;;12.05;7.88;;;;;;;8.29;100.00;101534.88;5062395;28;20029;-74
2023/12/27 08:47:44;;;;;;;9.85;6.75;;;;;;;8.38;100.00;101531.25;5063530;28;20107;-74
2023/12/27 08:50:09;;;;;;;12.23;6.85;;;;;;;8.39;100.00;101528.59;5062607;28;20036;-74
2023/12/27 08:52:35;;;;;;;12.50;6.88;;;;;;;8.43;100.00;101542.53;5060454;28;20047;-74
2023/12/27 08:55:02;;;;;;;8.93;6.28;;;;;;;8.49;100.00;101526.63;5057018;28;20025;-74
2023/12/27 08:57:27;;;;;;;10.13;6.60;;;;;;;8.49;100.00;101525.78;5061337;28;20029;-74
2023/12/27 08:59:52;;;;;;;9.68;5.57;;;;;;;8.55;100.00;101515.97;5056328;28;20123;-74
2023/12/27 09:02:18;;;;;;;9.85;6.97;;;;;;;8.58;100.00;101508.00;5059862;28;20027;-75
2023/12/27 09:04:43;;;;;;;7.10;5.47;;;;;;;8.62;100.00;101522.81;5055675;28;20029;-74
2023/12/27 09:07:09;;;;;;;9.02;5.32;;;;;;;8.61;100.00;101512.31;5057507;28;20533;-74
2023/12/27 09:09:34;;;;;;;9.80;6.10;;;;;;;8.60;99.86;101516.72;5061212;28;20033;-71
2023/12/27 09:12:01;;;;;;;8.18;6.05;;;;;;;8.63;99.87;101513.16;5056530;28;20227;-71
2023/12/27 09:14:27;;;;;;;8.45;5.63;;;;;;;8.61;99.65;101507.03;5062667;28;20414;-71
2023/12/27 09:16:52;;;;;;;11.80;6.45;;;;;;;8.60;99.82;101515.88;5061441;28;20031;-71
2023/12/27 09:19:17;;;;;;;8.57;6.00;;;;;;;8.57;100.00;101524.69;5062831;28;20108;-71
2023/12/27 09:21:46;;;;;;;9.90;6.10;;;;;;;8.59;100.00;101520.28;5060306;28;20052;-72
2023/12/27 09:24:12;;;;;;;8.82;5.45;;;;;;;8.55;100.00;101502.78;5057363;28;20422;-72
2023/12/27 09:26:37;;;;;;;9.27;5.30;;;;;;;8.61;99.67;101497.38;5056762;28;20025;-71
2023/12/27 09:29:04;;;;;;;10.43;4.63;;;;;;;8.67;99.77;101486.72;5058368;28;20326;-71
2023/12/27 09:31:30;;;;;;;10.60;5.22;;;;;;;8.64;99.93;101494.69;5059606;28;20416;-71
2023/12/27 09:33:56;;;;;;;9.35;4.78;;;;;;;8.66;99.50;101500.78;5064142;28;20082;-71
2023/12/27 09:36:21;;;;;;;7.05;4.53;;;;;;;8.69;99.59;101495.44;5056839;28;20020;-71
2023/12/27 09:38:47;;;;;;;9.88;4.80;;;;;;;8.73;99.65;101484.84;5059300;28;20025;-71
2023/12/27 09:41:14;;;;;;;8.63;4.90;;;;;;;8.71;99.49;101482.22;5056811;28;20115;-71
2023/12/27 09:43:41;;;;;;;7.15;4.90;;;;;;;8.72;99.80;101483.09;5058940;28;20423;-72
2023/12/27 09:46:09;;;;;;;7.40;3.50;;;;;;;8.76;99.28;101482.13;5068566;28;20060;-71
2023/12/27 09:48:36;;;;;;;7.97;4.38;;;;;;;8.75;99.33;101478.63;5071509;28;20099;-72
2023/12/27 09:51:04;;;;;;;7.65;4.80;;;;;;;8.77;99.26;101468.91;5069389;28;20024;-72
2023/12/27 09:53:29;;;;;;;8.43;4.82;;;;;;;8.86;98.76;101462.53;5066893;28;20039;-72
2023/12/27 09:55:55;;;;;;;10.82;5.18;;;;;;;8.94;98.42;101473.78;5068490;28;20464;-71
2023/12/27 09:58:27;;;;;;;6.22;4.20;;;;;;;8.88;98.89;101468.66;5068187;28;20048;-71
2023/12/27 10:01:01;;;;;;;8.97;4.63;;;;;;;9.00;98.47;101467.50;5063260;28;20131;-71
2023/12/27 10:03:40;;;;;;;5.97;4.25;;;;;;;9.04;98.78;101474.44;5062511;28;20027;-71
2023/12/27 10:06:32;;;;;;;5.90;4.00;;;;;;;9.14;98.66;101468.94;5066604;28;20107;-72
2023/12/27 10:08:58;;;;;;;6.18;4.00;;;;;;;9.11;98.60;101478.69;5060464;28;20025;-72
2023/12/27 10:11:24;;;;;;;6.40;4.22;;;;;;;9.14;98.28;101476.84;5058744;28;20025;-71
2023/12/27 10:13:50;;;;;;;7.40;3.97;;;;;;;9.15;98.06;101473.28;5068030;28;20032;-71
2023/12/27 10:16:17;;;;;;;5.30;3.60;;;;;;;9.17;98.04;101465.34;5065214;28;20020;-71
2023/12/27 10:18:47;;;;;;;5.88;3.60;;;;;;;9.16;98.26;101459.19;5066474;28;20017;-71
2023/12/27 10:21:13;;;;;;;6.63;4.28;;;;;;;9.19;98.54;101461.78;5055209;28;20044;-71
2023/12/27 10:23:38;;;;;;;6.97;4.38;;;;;;;9.22;98.41;101457.31;5057662;28;20456;-71
2023/12/27 10:26:05;;;;;;;5.25;3.72;;;;;;;9.28;97.90;101463.31;5061701;28;20028;-75
2023/12/27 10:28:30;;;;;;;5.90;4.30;;;;;;;9.28;98.08;101463.31;5067181;28;20032;-71
2023/12/27 10:30:56;;;;;;;7.40;4.10;;;;;;;9.29;98.25;101446.56;5067792;28;20496;-71
2023/12/27 10:33:23;;;;;;;4.60;4.07;;;;;;;9.32;98.47;101429.78;5068769;28;20468;-71
2023/12/27 10:35:48;;;;;;;5.10;3.45;;;;;;;9.40;98.28;101436.59;5061868;28;20592;-71
2023/12/27 10:38:14;;;;;;;4.50;3.38;;;;;;;9.46;97.76;101427.66;5068378;28;20135;-71
2023/12/27 10:40:40;;;;;;;5.72;3.45;;;;;;;9.50;97.54;101426.66;5064734;28;20105;-71
2023/12/27 10:43:06;;;;;;;8.68;3.45;;;;;;;9.51;97.14;101423.13;5065957;28;20062;-71
2023/12/27 10:45:32;;;;;;;7.95;3.10;;;;;;;9.57;97.57;101422.97;5061487;28;20127;-71
2023/12/27 10:47:59;;;;;;;6.28;3.13;;;;;;;9.58;97.03;101408.88;5065008;28;20016;-71
2023/12/27 10:50:26;;;;;;;3.35;2.88;;;;;;;9.53;96.77;101418.69;5065015;28;20027;-71
2023/12/27 10:53:02;;;;;;;5.97;3.30;;;;;;;9.62;97.25;101418.44;5059436;28;20025;-71
2023/12/27 10:55:29;;;;;;;4.40;2.25;;;;;;;9.67;96.45;101421.81;5059520;28;20504;-71
2023/12/27 10:57:56;;;;;;;4.93;2.20;;;;;;;9.73;95.99;101407.56;5063688;28;20133;-71
2023/12/27 11:00:23;;;;;;;3.33;2.05;;;;;;;9.81;95.62;101399.44;5062871;28;20032;-71
2023/12/27 11:02:50;;;;;;;4.82;2.15;;;;;;;9.87;94.92;101397.50;5063255;28;20057;-71
2023/12/27 11:05:17;;;;;;;3.88;1.80;;;;;;;9.90;94.32;101388.63;5061449;28;20262;-71
2023/12/27 11:07:45;;;;;;;5.07;2.20;;;;;;;9.96;93.66;101383.16;5066207;28;20093;-71
2023/12/27 11:10:14;;;;;;;4.40;1.67;;;;;;;10.01;93.40;101388.31;5065946;28;20035;-74
2023/12/27 11:12:42;;;;;;;3.30;1.80;;;;;;;10.04;93.27;101372.38;5058586;28;20083;-74
2023/12/27 11:15:09;;;;;;;4.93;2.00;;;;;;;9.97;92.86;101369.91;5058719;28;20044;-74
2023/12/27 11:17:37;;;;;;;6.50;1.70;;;;;;;10.05;92.73;101366.19;5061838;28;20488;-74
2023/12/27 11:20:04;;;;;;;4.78;1.83;;;;;;;10.02;92.82;101384.75;5062955;28;20123;-74